createdAt,value
2018-09-17T00:00:13.624Z,99.90
2018-09-17T00:02:42.932Z,99.90
2018-09-17T00:05:11.446Z,99.90
2018-09-17T00:07:40.034Z,99.90
2018-09-17T00:10:09.593Z,99.90
2018-09-17T00:12:38.949Z,99.90
2018-09-17T00:15:07.675Z,99.90
2018-09-17T00:17:37.178Z,99.90
2018-09-17T00:20:05.965Z,99.90
2018-09-17T00:22:34.585Z,99.90
2018-09-17T00:25:03.231Z,99.90
2018-09-17T00:27:32.139Z,99.90
2018-09-17T00:30:00.888Z,99.90
2018-09-17T00:32:29.751Z,99.90
2018-09-17T00:34:58.400Z,99.90
2018-09-17T00:37:27.910Z,99.90
2018-09-17T00:39:57.044Z,99.90
2018-09-17T00:42:26.587Z,99.90
2018-09-17T00:44:55.361Z,99.90
2018-09-17T00:47:24.044Z,99.90
2018-09-17T00:49:52.817Z,99.90
2018-09-17T00:52:21.399Z,99.90
2018-09-17T00:54:50.006Z,99.90
2018-09-17T00:57:18.757Z,99.90
2018-09-17T00:59:47.387Z,99.90
2018-09-17T01:02:16.119Z,99.90
2018-09-17T01:04:44.734Z,99.90
2018-09-17T01:07:13.917Z,99.90
2018-09-17T01:09:44.382Z,99.90
2018-09-17T01:12:14.765Z,99.90
2018-09-17T01:14:43.648Z,99.90
2018-09-17T01:17:13.086Z,99.90
2018-09-17T01:19:41.744Z,99.90
2018-09-17T01:22:10.297Z,99.90
2018-09-17T01:24:39.911Z,99.90
2018-09-17T01:27:08.524Z,99.90
2018-09-17T01:29:37.100Z,99.90
2018-09-17T01:32:06.558Z,99.90
2018-09-17T01:34:35.754Z,99.90
2018-09-17T01:37:04.872Z,99.90
2018-09-17T01:39:33.656Z,99.90
2018-09-17T01:42:02.269Z,99.90
2018-09-17T01:44:31.002Z,99.90
2018-09-17T01:46:59.545Z,99.90
2018-09-17T01:49:28.936Z,99.90
2018-09-17T01:51:57.518Z,99.90
2018-09-17T01:54:26.108Z,99.90
2018-09-17T01:56:54.794Z,99.90
2018-09-17T01:59:23.377Z,99.90
2018-09-17T02:01:52.546Z,99.90
2018-09-17T02:04:21.323Z,99.90
2018-09-17T02:06:53.167Z,99.90
2018-09-17T02:09:22.611Z,99.90
2018-09-17T02:11:51.350Z,99.90
2018-09-17T02:14:19.949Z,99.90
2018-09-17T02:16:48.469Z,99.90
2018-09-17T02:19:17.061Z,99.90
2018-09-17T02:21:46.144Z,99.90
2018-09-17T02:24:14.840Z,99.90
2018-09-17T02:26:43.453Z,99.90
2018-09-17T02:29:12.091Z,99.90
2018-09-17T02:31:41.748Z,99.90
2018-09-17T02:34:10.258Z,99.90
2018-09-17T02:36:38.759Z,99.90
2018-09-17T02:39:08.673Z,99.90
2018-09-17T02:41:38.079Z,99.90
2018-09-17T02:44:06.710Z,99.90
2018-09-17T02:46:35.444Z,99.90
2018-09-17T02:49:04.271Z,99.90
2018-09-17T02:51:33.077Z,99.90
2018-09-17T02:54:01.604Z,99.90
2018-09-17T02:56:30.254Z,99.90
2018-09-17T02:58:58.823Z,99.90
2018-09-17T03:01:27.498Z,99.90
2018-09-17T03:03:57.297Z,99.90
2018-09-17T03:06:26.213Z,99.90
2018-09-17T03:08:54.917Z,99.90
2018-09-17T03:11:23.486Z,99.90
2018-09-17T03:13:52.193Z,99.90
2018-09-17T03:16:20.839Z,99.90
2018-09-17T03:18:54.354Z,99.90
2018-09-17T03:21:22.873Z,99.90
2018-09-17T03:23:51.590Z,99.90
2018-09-17T03:26:20.564Z,99.90
2018-09-17T03:28:49.176Z,99.90
2018-09-17T03:31:18.426Z,99.90
2018-09-17T03:33:46.973Z,99.90
2018-09-17T03:36:16.580Z,99.90
2018-09-17T03:38:48.142Z,99.90
2018-09-17T03:41:17.657Z,99.90
2018-09-17T03:43:48.686Z,99.90
2018-09-17T03:46:17.622Z,99.90
2018-09-17T03:48:46.044Z,99.90
2018-09-17T03:51:15.037Z,99.90
2018-09-17T03:53:43.832Z,99.90
2018-09-17T03:56:12.403Z,99.90
2018-09-17T03:58:41.667Z,99.90
2018-09-17T04:01:10.205Z,99.90
2018-09-17T04:03:39.430Z,99.90
2018-09-17T04:06:07.982Z,99.90
2018-09-17T04:08:37.813Z,99.90
2018-09-17T04:11:07.013Z,99.90
2018-09-17T04:13:36.702Z,99.90
2018-09-17T04:16:05.746Z,99.90
2018-09-17T04:18:34.409Z,99.90
2018-09-17T04:21:03.686Z,99.90
2018-09-17T04:23:37.351Z,99.90
2018-09-17T04:26:08.594Z,99.90
2018-09-17T04:28:38.472Z,99.90
2018-09-17T04:31:07.167Z,99.90
2018-09-17T04:33:38.094Z,99.90
2018-09-17T04:36:07.036Z,99.90
2018-09-17T04:38:35.511Z,99.90
2018-09-17T04:41:04.576Z,99.90
2018-09-17T04:43:33.373Z,99.90
2018-09-17T04:46:01.866Z,99.90
2018-09-17T04:48:30.890Z,99.90
2018-09-17T04:50:59.474Z,99.90
2018-09-17T04:53:28.684Z,99.90
2018-09-17T04:56:01.818Z,99.90
2018-09-17T04:58:30.583Z,99.90
2018-09-17T05:00:59.361Z,99.90
2018-09-17T05:03:27.889Z,99.90
2018-09-17T05:05:56.894Z,99.90
2018-09-17T05:08:25.991Z,99.90
2018-09-17T05:10:54.566Z,99.90
2018-09-17T05:13:23.608Z,99.90
2018-09-17T05:15:52.230Z,99.90
2018-09-17T05:18:21.031Z,99.90
2018-09-17T05:20:50.018Z,99.90
2018-09-17T05:23:21.446Z,99.90
2018-09-17T05:25:50.031Z,99.90
2018-09-17T05:28:18.733Z,99.90
2018-09-17T05:30:47.907Z,99.90
2018-09-17T05:33:16.497Z,99.90
2018-09-17T05:35:45.730Z,99.90
2018-09-17T05:38:14.919Z,99.90
2018-09-17T05:40:44.279Z,99.90
2018-09-17T05:43:12.952Z,99.90
2018-09-17T05:45:41.789Z,99.90
2018-09-17T05:48:10.379Z,99.90
2018-09-17T05:50:39.102Z,99.90
2018-09-17T05:53:07.858Z,99.90
2018-09-17T05:55:36.353Z,99.90
2018-09-17T05:58:05.032Z,99.90
2018-09-17T06:00:33.533Z,99.90
2018-09-17T06:03:02.112Z,99.90
2018-09-17T06:05:30.644Z,99.90
2018-09-17T06:07:59.470Z,99.90
2018-09-17T06:10:28.027Z,99.90
2018-09-17T06:12:56.643Z,99.90
2018-09-17T06:15:25.254Z,99.90
2018-09-17T06:17:54.643Z,99.90
2018-09-17T06:20:23.498Z,99.90
2018-09-17T06:22:52.716Z,99.90
2018-09-17T06:25:21.439Z,99.90
2018-09-17T06:27:50.721Z,99.90
2018-09-17T06:30:20.223Z,99.90
2018-09-17T06:32:48.858Z,99.90
2018-09-17T06:35:17.330Z,99.90
2018-09-17T06:37:46.052Z,99.90
2018-09-17T06:40:14.639Z,99.90
2018-09-17T06:42:43.531Z,99.90
2018-09-17T06:45:12.098Z,99.90
2018-09-17T06:47:40.870Z,99.90
2018-09-17T06:50:09.403Z,99.90
2018-09-17T06:52:38.072Z,99.90
2018-09-17T06:55:06.674Z,99.90
2018-09-17T06:57:35.327Z,99.90
2018-09-17T07:00:04.109Z,99.90
2018-09-17T07:02:32.575Z,99.90
2018-09-17T07:05:01.206Z,99.90
2018-09-17T07:07:29.794Z,99.90
2018-09-17T07:09:58.805Z,99.90
2018-09-17T07:12:28.181Z,99.90
2018-09-17T07:14:57.507Z,99.90
2018-09-17T07:17:25.954Z,99.90
2018-09-17T07:19:55.340Z,99.90
2018-09-17T07:22:24.126Z,99.90
2018-09-17T07:24:53.227Z,99.90
2018-09-17T07:27:22.346Z,99.90
2018-09-17T07:29:51.190Z,99.90
2018-09-17T07:32:20.635Z,99.90
2018-09-17T07:34:49.606Z,99.90
2018-09-17T07:37:18.220Z,99.90
2018-09-17T07:39:46.835Z,99.90
2018-09-17T07:42:15.481Z,99.90
2018-09-17T07:44:45.381Z,99.90
2018-09-17T07:47:14.048Z,99.90
2018-09-17T07:49:42.876Z,99.90
2018-09-17T07:52:11.474Z,99.90
2018-09-17T07:54:40.281Z,99.90
2018-09-17T07:57:08.975Z,99.90
2018-09-17T07:59:37.925Z,99.90
2018-09-17T08:02:07.191Z,99.90
2018-09-17T08:04:35.865Z,99.90
2018-09-17T08:07:05.454Z,99.90
2018-09-17T08:09:34.146Z,99.90
2018-09-17T08:12:02.865Z,99.90
2018-09-17T08:14:31.622Z,99.90
2018-09-17T08:17:00.166Z,99.90
2018-09-17T08:19:29.247Z,99.90
2018-09-17T08:21:57.906Z,99.90
2018-09-17T08:24:26.594Z,99.90
2018-09-17T08:26:55.430Z,99.90
2018-09-17T08:29:24.392Z,99.90
2018-09-17T08:31:53.009Z,99.90
2018-09-17T08:34:22.521Z,99.90
2018-09-17T08:36:51.037Z,99.90
2018-09-17T08:39:19.644Z,99.90
2018-09-17T08:41:48.505Z,99.90
2018-09-17T08:44:17.352Z,99.90
2018-09-17T08:46:46.325Z,99.90
2018-09-17T08:49:15.369Z,99.90
2018-09-17T08:51:44.119Z,99.90
2018-09-17T08:54:12.993Z,99.90
2018-09-17T08:56:49.861Z,99.90
2018-09-17T09:00:24.882Z,99.90
2018-09-17T09:02:58.794Z,99.90
2018-09-17T09:05:32.656Z,99.90
2018-09-17T09:08:01.230Z,99.90
2018-09-17T09:10:35.261Z,99.90
2018-09-17T09:13:08.845Z,99.90
2018-09-17T09:15:39.670Z,99.90
2018-09-17T09:18:09.254Z,99.90
2018-09-17T09:20:39.305Z,99.90
2018-09-17T09:23:08.803Z,99.90
2018-09-17T09:25:37.791Z,99.90
2018-09-17T09:28:07.009Z,99.90
2018-09-17T09:30:35.514Z,99.90
2018-09-17T09:33:04.209Z,99.90
2018-09-17T09:35:33.462Z,99.90
2018-09-17T09:38:02.088Z,99.90
2018-09-17T09:40:30.813Z,99.90
2018-09-17T09:42:59.430Z,99.90
2018-09-17T09:45:27.965Z,99.90
2018-09-17T09:47:57.928Z,99.90
2018-09-17T09:50:26.594Z,99.40
2018-09-17T09:52:55.202Z,99.10
2018-09-17T09:55:23.935Z,99.90
2018-09-17T09:57:52.684Z,99.30
2018-09-17T10:00:27.321Z,99.90
2018-09-17T10:03:06.161Z,99.70
2018-09-17T10:05:34.718Z,99.30
2018-09-17T10:08:03.834Z,98.40
2018-09-17T10:10:37.517Z,98.80
2018-09-17T10:13:11.453Z,99.20
2018-09-17T10:15:46.131Z,99.60
2018-09-17T10:18:19.995Z,98.40
2018-09-17T10:20:48.857Z,98.70
2018-09-17T10:23:17.650Z,98.30
2018-09-17T10:25:46.531Z,97.60
2018-09-17T10:28:16.108Z,97.00
2018-09-17T10:30:45.044Z,97.10
2018-09-17T10:33:13.520Z,96.60
2018-09-17T10:35:42.593Z,97.90
2018-09-17T10:38:11.150Z,98.80
2018-09-17T10:40:39.915Z,98.20
2018-09-17T10:43:09.786Z,96.60
2018-09-17T10:45:38.386Z,96.60
2018-09-17T10:48:07.223Z,96.80
2018-09-17T10:50:35.814Z,94.80
2018-09-17T10:53:05.395Z,94.40
2018-09-17T10:55:34.078Z,94.70
2018-09-17T10:58:02.627Z,94.00
2018-09-17T11:00:32.278Z,93.60
2018-09-17T11:03:01.743Z,92.50
2018-09-17T11:05:30.442Z,93.60
2018-09-17T11:07:59.086Z,91.80
2018-09-17T11:10:27.634Z,91.70
2018-09-17T11:12:56.220Z,92.30
2018-09-17T11:15:29.006Z,93.10
2018-09-17T11:17:57.560Z,93.10
2018-09-17T11:20:26.197Z,92.60
2018-09-17T11:22:54.686Z,92.20
2018-09-17T11:25:23.257Z,90.50
2018-09-17T11:27:52.847Z,92.60
2018-09-17T11:30:21.622Z,92.90
2018-09-17T11:32:50.584Z,91.30
2018-09-17T11:35:19.153Z,91.80
2018-09-17T11:37:48.140Z,91.50
2018-09-17T11:40:16.878Z,90.50
2018-09-17T11:42:45.721Z,91.50
2018-09-17T11:45:14.343Z,91.40
2018-09-17T11:47:43.078Z,91.00
2018-09-17T11:50:11.782Z,90.20
2018-09-17T11:52:40.299Z,90.60
2018-09-17T11:55:08.957Z,90.60
2018-09-17T11:57:37.487Z,91.10
2018-09-17T12:00:07.202Z,90.90
2018-09-17T12:02:36.703Z,90.00
2018-09-17T12:05:06.125Z,89.60
2018-09-17T12:07:42.202Z,88.10
2018-09-17T12:10:11.680Z,89.20
2018-09-17T12:12:40.777Z,86.90
2018-09-17T12:15:09.895Z,87.80
2018-09-17T12:17:39.175Z,86.50
2018-09-17T12:20:09.120Z,88.10
2018-09-17T12:22:37.732Z,86.60
2018-09-17T12:25:07.292Z,86.80
2018-09-17T12:27:35.826Z,85.20
2018-09-17T12:30:05.109Z,84.60
2018-09-17T12:32:33.853Z,85.50
2018-09-17T12:35:02.525Z,86.20
2018-09-17T12:37:31.089Z,85.70
2018-09-17T12:39:59.761Z,85.60
2018-09-17T12:42:28.280Z,82.40
2018-09-17T12:44:56.949Z,84.00
2018-09-17T12:47:25.797Z,82.60
2018-09-17T12:49:54.985Z,84.40
2018-09-17T12:52:23.538Z,85.00
2018-09-17T12:54:52.368Z,86.00
2018-09-17T12:57:20.997Z,88.20
2018-09-17T12:59:50.419Z,88.20
2018-09-17T13:02:19.159Z,87.50
2018-09-17T13:04:47.762Z,89.80
2018-09-17T13:07:17.013Z,85.80
2018-09-17T13:09:46.425Z,86.50
2018-09-17T13:12:15.169Z,89.00
2018-09-17T13:14:43.831Z,87.20
2018-09-17T13:17:12.439Z,86.50
2018-09-17T13:19:41.127Z,85.30
2018-09-17T13:22:10.019Z,88.90
2018-09-17T13:24:39.020Z,87.40
2018-09-17T13:27:07.851Z,88.80
2018-09-17T13:29:36.490Z,90.40
2018-09-17T13:32:05.367Z,90.00
2018-09-17T13:34:34.111Z,88.80
2018-09-17T13:37:03.009Z,89.20
2018-09-17T13:39:32.561Z,89.70
2018-09-17T13:42:01.518Z,90.50
2018-09-17T13:44:31.101Z,90.90
2018-09-17T13:47:00.117Z,90.10
2018-09-17T13:49:28.702Z,89.40
2018-09-17T13:51:57.925Z,90.10
2018-09-17T13:54:26.535Z,88.20
2018-09-17T13:56:56.273Z,90.00
2018-09-17T13:59:26.008Z,91.10
2018-09-17T14:01:54.542Z,90.10
2018-09-17T14:04:23.419Z,89.70
2018-09-17T14:06:53.142Z,90.60
2018-09-17T14:09:21.868Z,89.40
2018-09-17T14:11:50.467Z,87.60
2018-09-17T14:14:18.939Z,89.10
2018-09-17T14:16:47.649Z,88.40
2018-09-17T14:19:16.475Z,86.40
2018-09-17T14:21:45.048Z,87.40
2018-09-17T14:24:13.550Z,89.40
2018-09-17T14:26:42.230Z,88.10
2018-09-17T14:29:10.865Z,86.30
2018-09-17T14:31:45.546Z,85.10
2018-09-17T14:34:14.100Z,86.90
2018-09-17T14:36:42.837Z,87.00
2018-09-17T14:39:12.026Z,89.30
2018-09-17T14:41:40.953Z,88.90
2018-09-17T14:44:10.120Z,87.20
2018-09-17T14:46:38.774Z,88.20
2018-09-17T14:49:08.231Z,86.60
2018-09-17T14:51:37.094Z,87.80
2018-09-17T14:54:06.357Z,87.30
2018-09-17T14:56:35.242Z,86.80
2018-09-17T14:59:04.562Z,86.20
2018-09-17T15:01:33.314Z,86.60
2018-09-17T15:04:02.251Z,87.60
2018-09-17T15:06:30.941Z,88.00
2018-09-17T15:08:59.639Z,85.90
2018-09-17T15:11:28.437Z,86.90
2018-09-17T15:13:57.341Z,86.40
2018-09-17T15:16:25.796Z,86.80
2018-09-17T15:18:54.834Z,87.50
2018-09-17T15:21:23.568Z,87.50
2018-09-17T15:23:52.626Z,89.20
2018-09-17T15:26:21.540Z,89.40
2018-09-17T15:28:50.193Z,87.40
2018-09-17T15:31:18.920Z,85.80
2018-09-17T15:33:47.582Z,88.90
2018-09-17T15:36:16.561Z,88.90
2018-09-17T15:38:45.216Z,88.60
2018-09-17T15:41:14.506Z,87.80
2018-09-17T15:43:43.073Z,87.10
2018-09-17T15:46:11.944Z,87.30
2018-09-17T15:48:41.393Z,88.20
2018-09-17T15:51:10.606Z,86.80
2018-09-17T15:53:40.218Z,83.40
2018-09-17T15:56:08.890Z,83.80
2018-09-17T15:58:38.205Z,85.00
2018-09-17T16:01:07.756Z,82.80
2018-09-17T16:03:36.750Z,85.10
2018-09-17T16:06:06.203Z,85.00
2018-09-17T16:08:34.767Z,85.70
2018-09-17T16:11:03.538Z,87.40
2018-09-17T16:13:33.002Z,87.90
2018-09-17T16:16:02.951Z,86.60
2018-09-17T16:18:42.198Z,86.10
2018-09-17T16:21:11.221Z,84.80
2018-09-17T16:24:05.430Z,85.00
2018-09-17T16:26:50.910Z,85.20
2018-09-17T16:29:27.367Z,86.50
2018-09-17T16:31:58.461Z,86.60
2018-09-17T16:34:27.199Z,86.80
2018-09-17T16:37:00.329Z,86.70
2018-09-17T16:39:41.627Z,88.40
2018-09-17T16:47:43.583Z,89.10
2018-09-17T16:50:12.264Z,89.00
2018-09-17T16:52:40.747Z,89.80
2018-09-17T16:55:09.871Z,89.70
2018-09-17T16:57:38.701Z,90.10
2018-09-17T17:00:07.522Z,90.30
2018-09-17T17:02:36.736Z,90.70
2018-09-17T17:05:05.669Z,90.90
2018-09-17T17:07:37.243Z,91.00
2018-09-17T17:10:07.071Z,91.40
2018-09-17T17:12:35.655Z,91.00
2018-09-17T17:15:04.874Z,91.50
2018-09-17T17:17:33.694Z,91.10
2018-09-17T17:20:03.153Z,91.00
2018-09-17T17:22:31.957Z,91.40
2018-09-17T17:25:00.762Z,92.20
2018-09-17T17:27:29.631Z,92.10
2018-09-17T17:29:58.454Z,91.80
2018-09-17T17:32:27.056Z,92.60
2018-09-17T17:34:56.032Z,92.90
2018-09-17T17:37:25.505Z,93.70
2018-09-17T17:39:54.719Z,93.10
2018-09-17T17:42:23.308Z,93.00
2018-09-17T17:44:52.614Z,93.00
2018-09-17T17:47:21.725Z,93.50
2018-09-17T17:49:50.386Z,93.90
2018-09-17T17:52:19.417Z,93.10
2018-09-17T17:54:48.037Z,93.20
2018-09-17T17:57:17.716Z,93.40
2018-09-17T17:59:50.799Z,93.60
2018-09-17T18:02:19.882Z,93.90
2018-09-17T18:04:48.928Z,93.80
2018-09-17T18:07:17.667Z,95.00
2018-09-17T18:09:46.779Z,95.00
2018-09-17T18:12:16.078Z,95.60
2018-09-17T18:14:45.125Z,96.00
2018-09-17T18:17:16.496Z,96.80
2018-09-17T18:19:50.083Z,96.90
2018-09-17T18:22:18.678Z,97.30
2018-09-17T18:24:47.587Z,97.60
2018-09-17T18:27:16.555Z,97.80
2018-09-17T18:29:45.250Z,98.30
2018-09-17T18:32:14.331Z,98.30
2018-09-17T18:34:43.199Z,99.20
2018-09-17T18:37:12.744Z,99.40
2018-09-17T18:39:42.682Z,99.70
2018-09-17T18:42:11.853Z,99.90
2018-09-17T18:44:40.795Z,99.90
2018-09-17T18:47:10.536Z,99.90
2018-09-17T18:49:39.123Z,99.90
2018-09-17T18:52:08.221Z,99.90
2018-09-17T18:54:36.988Z,99.90
2018-09-17T18:57:07.095Z,99.90
2018-09-17T18:59:37.072Z,99.90
2018-09-17T19:02:06.357Z,99.90
2018-09-17T19:04:35.477Z,99.90
2018-09-17T19:07:04.634Z,99.90
2018-09-17T19:09:38.873Z,99.90
2018-09-17T19:12:08.452Z,99.90
2018-09-17T19:14:42.774Z,99.90
2018-09-17T19:17:17.028Z,99.90
2018-09-17T19:19:46.912Z,99.90
2018-09-17T19:22:21.825Z,99.90
2018-09-17T19:24:50.822Z,99.90
2018-09-17T19:27:19.445Z,99.90
2018-09-17T19:29:48.199Z,99.90
2018-09-17T19:32:17.161Z,99.90
2018-09-17T19:34:46.135Z,99.90
2018-09-17T19:37:20.790Z,99.90
2018-09-17T19:39:55.231Z,99.90
2018-09-17T19:42:24.842Z,99.90
2018-09-17T19:44:58.948Z,99.90
2018-09-17T19:47:27.802Z,99.90
2018-09-17T19:49:57.341Z,99.90
2018-09-17T19:52:26.616Z,99.90
2018-09-17T19:54:56.068Z,99.90
2018-09-17T19:57:29.997Z,99.90
2018-09-17T19:59:59.670Z,99.90
2018-09-17T20:02:28.269Z,99.90
2018-09-17T20:05:02.194Z,99.90
2018-09-17T20:07:30.820Z,99.90
2018-09-17T20:10:00.007Z,99.90
2018-09-17T20:12:30.026Z,99.90
2018-09-17T20:14:58.808Z,99.90
2018-09-17T20:17:57.100Z,99.90
2018-09-17T20:20:27.268Z,99.90
2018-09-17T20:26:06.476Z,99.90
2018-09-17T20:28:35.793Z,99.90
2018-09-17T20:34:32.038Z,99.90
2018-09-17T20:37:00.650Z,99.90
2018-09-17T20:39:58.966Z,99.90
2018-09-17T20:42:28.963Z,99.90
2018-09-17T20:44:58.442Z,99.90
2018-09-17T20:47:27.440Z,99.90
2018-09-17T20:50:10.973Z,99.90
2018-09-17T20:52:40.165Z,99.90
2018-09-17T20:55:10.697Z,99.90
2018-09-17T20:57:39.564Z,99.90
2018-09-17T21:00:08.176Z,99.90
2018-09-17T21:02:57.342Z,99.90
2018-09-17T21:05:26.133Z,99.90
2018-09-17T21:07:57.036Z,99.90
2018-09-17T21:10:30.402Z,99.90
2018-09-17T21:12:58.973Z,99.90
2018-09-17T21:15:28.074Z,99.90
2018-09-17T21:17:57.618Z,99.90
2018-09-17T21:20:26.314Z,99.90
2018-09-17T21:22:55.314Z,99.90
2018-09-17T21:25:24.336Z,99.90
2018-09-17T21:27:52.818Z,99.90
2018-09-17T21:30:21.477Z,99.90
2018-09-17T21:32:50.069Z,99.90
2018-09-17T21:35:18.831Z,99.90
2018-09-17T21:37:47.432Z,99.90
2018-09-17T21:40:16.290Z,99.90
2018-09-17T21:42:44.846Z,99.90
2018-09-17T21:45:13.705Z,99.90
2018-09-17T21:47:42.202Z,99.90
2018-09-17T21:50:11.665Z,99.90
2018-09-17T21:52:40.940Z,99.90
2018-09-17T21:55:09.842Z,99.90
2018-09-17T21:57:38.486Z,99.90
2018-09-17T22:00:08.094Z,99.90
2018-09-17T22:02:37.138Z,99.90
2018-09-17T22:05:05.956Z,99.90
2018-09-17T22:07:34.730Z,99.90
2018-09-17T22:10:03.360Z,99.90
2018-09-17T22:12:32.101Z,99.90
2018-09-17T22:15:00.812Z,99.90
2018-09-17T22:17:29.665Z,99.90
2018-09-17T22:19:59.585Z,99.90
2018-09-17T22:22:28.312Z,99.90
2018-09-17T22:24:56.901Z,99.90
2018-09-17T22:27:25.778Z,99.90
2018-09-17T22:29:54.648Z,99.90
2018-09-17T22:32:23.428Z,99.90
2018-09-17T22:34:52.248Z,99.90
2018-09-17T22:37:20.957Z,99.90
2018-09-17T22:39:49.723Z,99.90
2018-09-17T22:42:18.668Z,99.90
2018-09-17T22:44:47.151Z,99.90
2018-09-17T22:47:15.849Z,99.90
2018-09-17T22:49:44.476Z,99.90
2018-09-17T22:52:12.957Z,99.90
2018-09-17T22:54:42.462Z,99.90
2018-09-17T22:57:11.213Z,99.90
2018-09-17T22:59:40.221Z,99.90
2018-09-17T23:02:08.898Z,99.90
2018-09-17T23:04:37.838Z,99.90
2018-09-17T23:07:07.357Z,99.90
2018-09-17T23:09:36.841Z,99.90
2018-09-17T23:12:06.601Z,99.90
2018-09-17T23:14:36.462Z,99.90
2018-09-17T23:17:05.359Z,99.90
2018-09-17T23:19:34.009Z,99.90
2018-09-17T23:22:02.962Z,99.90
2018-09-17T23:24:31.660Z,99.90
2018-09-17T23:27:00.353Z,99.90
2018-09-17T23:29:28.990Z,99.90
2018-09-17T23:31:57.621Z,99.90
2018-09-17T23:34:26.816Z,99.90
2018-09-17T23:36:58.872Z,99.90
2018-09-17T23:39:27.715Z,99.90
2018-09-17T23:41:56.267Z,99.90
2018-09-17T23:44:24.952Z,99.90
2018-09-17T23:46:54.262Z,99.90
2018-09-17T23:49:22.993Z,99.90
2018-09-17T23:51:51.969Z,99.90
2018-09-17T23:54:21.260Z,99.90
2018-09-17T23:56:50.018Z,99.90
2018-09-17T23:59:18.752Z,99.90
